Time;durP1;ratioP1;P1;durP2;ratioP2;P2;SDS_P1;SDS_P2;PMS_P1;PMS_P2;Temp;Humidity;BMP_temperature;BMP_pressure;BME280_temperature;BME280_humidity;BME280_pressure;Samples;Min_cycle;Max_cycle;Signal;HPM_P1;HPM_P2
2022/03/23 00:01:46;;;;;;;4.47;3.17;;;;;;;;;;5073192;28;20118;-45
2022/03/23 00:04:12;;;;;;;4.38;3.05;;;;;;;;;;5092292;28;20036;-44
2022/03/23 00:06:38;;;;;;;3.50;2.40;;;;;;;;;;5092010;28;20028;-45
2022/03/23 00:09:04;;;;;;;3.25;2.30;;;;;;;;;;5091109;28;20016;-44
2022/03/23 00:11:31;;;;;;;4.65;2.72;;;;;;;;;;5079407;28;20028;-45
2022/03/23 00:13:57;;;;;;;3.78;2.60;;;;;;;;;;5091034;28;20422;-44
2022/03/23 00:16:23;;;;;;;3.78;2.72;;;;;;;;;;5091886;28;20048;-45
2022/03/23 00:18:49;;;;;;;5.13;3.13;;;;;;;;;;5091365;28;20055;-45
2022/03/23 00:21:15;;;;;;;3.75;2.20;;;;;;;;;;5092247;28;20043;-44
2022/03/23 00:23:41;;;;;;;6.68;2.63;;;;;;;;;;5074302;28;20032;-53
2022/03/23 00:26:07;;;;;;;3.83;2.72;;;;;;;;;;5071123;28;20381;-45
2022/03/23 00:28:34;;;;;;;5.03;3.13;;;;;;;;;;5070155;28;20025;-44
2022/03/23 00:31:00;;;;;;;5.50;3.70;;;;;;;;;;5070828;28;20021;-45
2022/03/23 00:33:26;;;;;;;3.13;2.60;;;;;;;;;;5086101;28;20412;-49
2022/03/23 00:35:53;;;;;;;3.85;2.33;;;;;;;;;;5091140;28;20024;-44
2022/03/23 00:38:20;;;;;;;4.35;2.90;;;;;;;;;;5087684;28;20060;-47
2022/03/23 00:40:46;;;;;;;4.32;2.80;;;;;;;;;;5074780;28;20056;-45
2022/03/23 00:43:13;;;;;;;3.95;2.45;;;;;;;;;;5087497;28;20538;-45
2022/03/23 00:45:40;;;;;;;3.45;2.70;;;;;;;;;;5077853;28;20485;-45
2022/03/23 00:48:06;;;;;;;3.78;2.38;;;;;;;;;;5074756;28;20024;-45
2022/03/23 00:50:34;;;;;;;4.28;2.67;;;;;;;;;;5075621;28;20029;-45
2022/03/23 00:53:00;;;;;;;3.70;2.58;;;;;;;;;;5074995;28;20024;-45
2022/03/23 00:55:26;;;;;;;4.10;2.53;;;;;;;;;;5075854;28;20060;-45
2022/03/23 00:57:52;;;;;;;3.83;2.75;;;;;;;;;;5074783;28;20031;-45
2022/03/23 01:00:22;;;;;;;3.72;2.60;;;;;;;;;;5076271;28;20377;-44
2022/03/23 01:02:48;;;;;;;4.50;2.53;;;;;;;;;;5084279;28;20358;-45
2022/03/23 01:05:15;;;;;;;4.60;2.58;;;;;;;;;;5094533;28;20197;-45
2022/03/23 01:07:42;;;;;;;3.45;2.60;;;;;;;;;;5075418;28;20035;-47
2022/03/23 01:10:12;;;;;;;3.97;2.38;;;;;;;;;;5085366;28;20028;-45
2022/03/23 01:12:39;;;;;;;3.33;2.42;;;;;;;;;;5094606;28;20456;-46
2022/03/23 01:15:05;;;;;;;3.42;2.58;;;;;;;;;;5094644;28;20016;-45
2022/03/23 01:17:32;;;;;;;4.05;2.80;;;;;;;;;;5095270;28;20063;-46
2022/03/23 01:19:58;;;;;;;4.55;2.75;;;;;;;;;;5085077;28;20040;-47
2022/03/23 01:22:24;;;;;;;3.53;2.60;;;;;;;;;;5082853;28;20023;-45
2022/03/23 01:24:50;;;;;;;2.55;1.90;;;;;;;;;;5094440;28;20103;-48
2022/03/23 01:27:16;;;;;;;2.95;2.10;;;;;;;;;;5095086;28;20023;-47
2022/03/23 01:29:42;;;;;;;3.80;2.33;;;;;;;;;;5088236;28;20376;-53
2022/03/23 01:32:09;;;;;;;4.55;3.20;;;;;;;;;;5079107;28;20024;-49
2022/03/23 01:34:35;;;;;;;3.13;2.33;;;;;;;;;;5095245;28;20054;-45
2022/03/23 01:37:02;;;;;;;4.15;2.63;;;;;;;;;;5094257;28;20457;-48
2022/03/23 01:39:28;;;;;;;4.07;2.90;;;;;;;;;;5090474;28;20535;-47
2022/03/23 01:41:54;;;;;;;7.25;2.88;;;;;;;;;;5073646;28;20363;-47
2022/03/23 01:44:23;;;;;;;4.82;2.65;;;;;;;;;;5081850;28;20046;-45
2022/03/23 01:47:00;;;;;;;4.53;2.38;;;;;;;;;;5094365;28;20063;-44
2022/03/23 01:49:26;;;;;;;3.70;2.67;;;;;;;;;;5094110;28;20050;-44
2022/03/23 01:51:52;;;;;;;2.92;2.30;;;;;;;;;;5093411;28;20037;-44
2022/03/23 01:54:18;;;;;;;2.90;2.20;;;;;;;;;;5095062;28;20032;-44
2022/03/23 01:56:44;;;;;;;2.90;2.03;;;;;;;;;;5094364;28;20020;-53
2022/03/23 01:59:10;;;;;;;3.00;2.05;;;;;;;;;;5092837;28;20031;-44
2022/03/23 02:01:38;;;;;;;6.13;2.95;;;;;;;;;;5073947;28;20028;-45
2022/03/23 02:04:04;;;;;;;3.88;2.30;;;;;;;;;;5073897;28;20025;-46
2022/03/23 02:06:30;;;;;;;4.05;2.65;;;;;;;;;;5056283;28;20031;-45
2022/03/23 02:08:56;;;;;;;2.58;2.08;;;;;;;;;;5073492;28;20025;-48
2022/03/23 02:11:22;;;;;;;2.90;2.17;;;;;;;;;;5092782;28;20028;-47
2022/03/23 02:13:48;;;;;;;2.80;2.20;;;;;;;;;;5093072;28;20028;-46
2022/03/23 02:16:14;;;;;;;2.83;2.35;;;;;;;;;;5093945;28;20448;-44
2022/03/23 02:18:40;;;;;;;3.40;2.63;;;;;;;;;;5094082;28;20073;-45
2022/03/23 02:21:07;;;;;;;4.32;2.67;;;;;;;;;;5076497;28;20028;-45
2022/03/23 02:23:32;;;;;;;3.13;2.22;;;;;;;;;;5073954;28;20115;-45
2022/03/23 02:26:02;;;;;;;3.75;3.13;;;;;;;;;;5073252;28;20104;-44
2022/03/23 02:28:28;;;;;;;3.45;2.08;;;;;;;;;;5073492;28;20417;-45
2022/03/23 02:30:55;;;;;;;3.60;2.55;;;;;;;;;;5072746;28;20486;-44
2022/03/23 02:33:21;;;;;;;3.13;2.28;;;;;;;;;;5073722;28;20024;-45
2022/03/23 02:35:50;;;;;;;2.90;2.25;;;;;;;;;;5080829;28;20063;-54
2022/03/23 02:38:17;;;;;;;4.60;2.30;;;;;;;;;;5093976;28;20042;-46
2022/03/23 02:40:46;;;;;;;3.88;2.80;;;;;;;;;;5093800;28;20043;-45
2022/03/23 02:43:12;;;;;;;3.50;2.50;;;;;;;;;;5081515;28;20056;-44
2022/03/23 02:45:38;;;;;;;5.07;2.75;;;;;;;;;;5090173;28;20362;-46
2022/03/23 02:48:05;;;;;;;5.38;2.40;;;;;;;;;;5074748;28;20050;-46
2022/03/23 02:50:32;;;;;;;3.63;2.30;;;;;;;;;;5093420;28;20051;-45
2022/03/23 03:01:52;;;;;;;2.97;2.15;;;;;;;;;;5029858;28;20522;-45
2022/03/23 03:04:18;;;;;;;2.65;2.03;;;;;;;;;;5069575;28;20439;-45
2022/03/23 03:06:45;;;;;;;4.88;2.58;;;;;;;;;;5073102;28;20032;-44
2022/03/23 03:09:11;;;;;;;3.85;2.88;;;;;;;;;;5072569;28;20048;-45
2022/03/23 03:11:38;;;;;;;4.00;2.75;;;;;;;;;;5072940;28;20032;-44
2022/03/23 03:14:04;;;;;;;3.40;2.40;;;;;;;;;;5072081;28;20421;-44
2022/03/23 03:16:30;;;;;;;3.17;2.60;;;;;;;;;;5073094;28;20055;-45
2022/03/23 03:18:56;;;;;;;3.38;2.45;;;;;;;;;;5072186;28;20028;-45
2022/03/23 03:21:22;;;;;;;4.68;2.83;;;;;;;;;;5086515;28;20032;-45
2022/03/23 03:23:48;;;;;;;3.20;2.20;;;;;;;;;;5092766;28;20027;-54
2022/03/23 03:26:15;;;;;;;3.45;2.65;;;;;;;;;;5073889;28;20047;-47
2022/03/23 03:28:42;;;;;;;2.75;1.92;;;;;;;;;;5072667;28;20030;-50
2022/03/23 03:34:14;;;;;;;5.03;2.65;;;;;;;;;;5090756;28;20038;-49
2022/03/23 03:36:41;;;;;;;3.00;2.13;;;;;;;;;;5072503;28;20529;-48
2022/03/23 03:39:07;;;;;;;3.53;2.63;;;;;;;;;;5073709;28;20420;-46
2022/03/23 03:41:33;;;;;;;3.45;2.40;;;;;;;;;;5092619;28;20110;-45
2022/03/23 03:43:59;;;;;;;4.80;2.97;;;;;;;;;;5091446;28;20505;-46
2022/03/23 03:46:25;;;;;;;3.55;2.63;;;;;;;;;;5092512;28;20036;-44
2022/03/23 03:48:52;;;;;;;4.50;2.53;;;;;;;;;;5078073;28;20096;-54
2022/03/23 03:51:18;;;;;;;3.17;2.08;;;;;;;;;;5092008;28;20472;-45
2022/03/23 03:53:44;;;;;;;3.03;2.28;;;;;;;;;;5092351;28;20150;-45
2022/03/23 03:56:10;;;;;;;3.30;2.67;;;;;;;;;;5091606;28;20228;-44
2022/03/23 03:58:37;;;;;;;3.72;2.65;;;;;;;;;;5092153;28;20095;-44
2022/03/23 04:01:03;;;;;;;2.92;2.47;;;;;;;;;;5090768;28;20043;-46
2022/03/23 04:03:29;;;;;;;4.18;2.33;;;;;;;;;;5092167;28;20027;-44
2022/03/23 04:05:55;;;;;;;2.42;2.17;;;;;;;;;;5074844;28;20079;-44
2022/03/23 04:08:21;;;;;;;4.18;2.58;;;;;;;;;;5072046;28;20037;-44
2022/03/23 04:10:47;;;;;;;3.17;2.50;;;;;;;;;;5086638;28;20449;-45
2022/03/23 04:13:13;;;;;;;3.00;2.33;;;;;;;;;;5091569;28;20028;-45
2022/03/23 04:15:39;;;;;;;2.67;2.15;;;;;;;;;;5077517;28;20032;-45
2022/03/23 04:18:07;;;;;;;4.00;2.60;;;;;;;;;;5071157;28;20033;-45
2022/03/23 04:20:33;;;;;;;3.13;2.83;;;;;;;;;;5072026;28;20017;-44
2022/03/23 04:22:59;;;;;;;4.07;2.78;;;;;;;;;;5088178;28;20028;-44
2022/03/23 04:25:25;;;;;;;3.60;2.63;;;;;;;;;;5091916;28;20365;-44
2022/03/23 04:27:52;;;;;;;4.32;2.65;;;;;;;;;;5091175;28;20028;-53
2022/03/23 04:30:19;;;;;;;4.07;2.80;;;;;;;;;;5091592;28;20531;-44
2022/03/23 04:32:51;;;;;;;4.53;2.65;;;;;;;;;;5088657;28;20040;-44
2022/03/23 04:35:18;;;;;;;3.83;2.92;;;;;;;;;;5071670;28;20093;-44
2022/03/23 04:37:45;;;;;;;3.80;2.80;;;;;;;;;;5071584;28;20063;-45
2022/03/23 04:40:11;;;;;;;3.78;2.70;;;;;;;;;;5071009;28;20020;-44
2022/03/23 04:42:38;;;;;;;3.13;2.22;;;;;;;;;;5080198;28;20024;-44
2022/03/23 04:45:06;;;;;;;3.05;2.13;;;;;;;;;;5079011;28;20021;-45
2022/03/23 04:47:33;;;;;;;3.15;2.30;;;;;;;;;;5071172;28;20393;-44
2022/03/23 04:49:59;;;;;;;3.53;2.40;;;;;;;;;;5070942;28;20445;-44
2022/03/23 04:52:25;;;;;;;3.22;2.35;;;;;;;;;;5071600;28;20060;-44
2022/03/23 04:54:56;;;;;;;3.72;2.30;;;;;;;;;;5057011;28;20051;-52
2022/03/23 04:57:22;;;;;;;3.80;2.65;;;;;;;;;;5091982;28;20473;-43
2022/03/23 04:59:49;;;;;;;4.30;2.58;;;;;;;;;;5091883;28;20024;-44
2022/03/23 05:02:15;;;;;;;4.00;3.08;;;;;;;;;;5073191;28;20028;-44
2022/03/23 05:04:41;;;;;;;3.42;2.55;;;;;;;;;;5089082;28;20028;-44
2022/03/23 05:07:07;;;;;;;3.63;2.28;;;;;;;;;;5070839;28;20052;-45
2022/03/23 05:09:33;;;;;;;3.67;2.70;;;;;;;;;;5071371;28;20112;-45
2022/03/23 05:11:59;;;;;;;4.07;2.50;;;;;;;;;;5071342;28;20029;-49
2022/03/23 05:14:25;;;;;;;4.95;2.63;;;;;;;;;;5089871;28;20370;-44
2022/03/23 05:16:51;;;;;;;4.68;3.25;;;;;;;;;;5074212;28;20083;-46
2022/03/23 05:19:17;;;;;;;3.53;2.53;;;;;;;;;;5072607;28;20480;-46
2022/03/23 05:21:43;;;;;;;3.13;2.30;;;;;;;;;;5070939;28;20085;-46
2022/03/23 05:24:09;;;;;;;3.47;2.85;;;;;;;;;;5077912;28;20066;-47
2022/03/23 05:26:35;;;;;;;3.75;2.80;;;;;;;;;;5077171;28;20063;-46
2022/03/23 05:29:01;;;;;;;2.95;2.42;;;;;;;;;;5074906;28;20046;-45
2022/03/23 05:31:28;;;;;;;4.20;3.10;;;;;;;;;;5074919;28;20470;-48
2022/03/23 05:33:53;;;;;;;3.90;2.70;;;;;;;;;;5074793;28;20020;-54
2022/03/23 05:36:19;;;;;;;4.55;2.92;;;;;;;;;;5074093;28;20024;-46
2022/03/23 05:38:45;;;;;;;4.00;3.05;;;;;;;;;;5074445;28;20466;-46
2022/03/23 05:41:13;;;;;;;3.95;3.15;;;;;;;;;;5086003;28;20028;-44
2022/03/23 05:43:39;;;;;;;4.55;2.55;;;;;;;;;;5093536;28;20492;-52
2022/03/23 05:46:05;;;;;;;3.85;2.42;;;;;;;;;;5085488;28;20051;-45
2022/03/23 05:48:31;;;;;;;4.15;2.63;;;;;;;;;;5077605;28;20028;-47
2022/03/23 05:50:57;;;;;;;4.15;2.58;;;;;;;;;;5096518;28;20457;-54
2022/03/23 05:53:23;;;;;;;5.18;2.85;;;;;;;;;;5094480;28;20499;-45
2022/03/23 05:55:49;;;;;;;4.90;2.97;;;;;;;;;;5081535;28;20020;-45
2022/03/23 05:58:17;;;;;;;3.67;2.97;;;;;;;;;;5089769;28;20169;-44
2022/03/23 06:00:43;;;;;;;4.90;2.47;;;;;;;;;;5094462;28;20016;-48
2022/03/23 06:03:09;;;;;;;5.15;3.10;;;;;;;;;;5093447;28;20032;-44
2022/03/23 06:05:35;;;;;;;3.38;2.35;;;;;;;;;;5083273;28;20483;-47
2022/03/23 06:08:01;;;;;;;3.00;2.33;;;;;;;;;;5080405;28;20377;-45
2022/03/23 06:10:27;;;;;;;4.82;3.10;;;;;;;;;;5077814;28;20488;-46
2022/03/23 06:12:53;;;;;;;3.92;3.13;;;;;;;;;;5074775;28;20029;-47
2022/03/23 06:15:19;;;;;;;3.47;2.58;;;;;;;;;;5086356;28;20035;-48
2022/03/23 06:17:45;;;;;;;4.70;2.67;;;;;;;;;;5094408;28;20066;-44
2022/03/23 06:20:13;;;;;;;4.22;2.70;;;;;;;;;;5093312;28;20457;-44
2022/03/23 06:22:39;;;;;;;3.65;2.55;;;;;;;;;;5074719;28;20032;-44
2022/03/23 06:25:07;;;;;;;3.13;2.22;;;;;;;;;;5081491;28;20410;-45
2022/03/23 06:27:34;;;;;;;3.67;2.97;;;;;;;;;;5087236;28;20351;-44
2022/03/23 06:30:00;;;;;;;3.00;2.70;;;;;;;;;;5094539;28;20023;-44
2022/03/23 06:32:26;;;;;;;3.60;3.10;;;;;;;;;;5088243;28;20031;-44
2022/03/23 06:34:52;;;;;;;3.67;2.72;;;;;;;;;;5080918;28;20403;-45
2022/03/23 06:37:18;;;;;;;4.88;2.90;;;;;;;;;;5081179;28;20096;-44
2022/03/23 06:39:44;;;;;;;5.47;2.85;;;;;;;;;;5091024;28;20026;-44
2022/03/23 06:42:10;;;;;;;5.63;3.03;;;;;;;;;;5085104;28;20028;-44
2022/03/23 06:44:38;;;;;;;4.78;2.72;;;;;;;;;;5078762;28;20469;-44
2022/03/23 06:47:04;;;;;;;4.30;2.85;;;;;;;;;;5083142;28;20033;-44
2022/03/23 06:49:30;;;;;;;4.30;3.03;;;;;;;;;;5072433;28;20069;-45
2022/03/23 06:51:56;;;;;;;5.18;2.97;;;;;;;;;;5090023;28;20027;-44
2022/03/23 06:54:22;;;;;;;6.53;3.63;;;;;;;;;;5073830;28;20044;-46
2022/03/23 06:56:51;;;;;;;6.15;3.60;;;;;;;;;;5092378;28;20020;-43
2022/03/23 06:59:17;;;;;;;6.25;3.15;;;;;;;;;;5091609;28;20035;-46
2022/03/23 07:01:43;;;;;;;6.45;3.47;;;;;;;;;;5092191;28;20392;-45
2022/03/23 07:04:09;;;;;;;6.25;3.25;;;;;;;;;;5091403;28;20028;-44
2022/03/23 07:06:35;;;;;;;4.72;3.25;;;;;;;;;;5091954;28;20039;-48
2022/03/23 07:11:46;;;;;;;5.95;3.88;;;;;;;;;;5091325;28;20141;-48
2022/03/23 07:14:12;;;;;;;6.28;3.58;;;;;;;;;;5093039;28;20052;-47
2022/03/23 07:16:38;;;;;;;7.63;4.22;;;;;;;;;;5091711;28;20132;-47
2022/03/23 07:19:04;;;;;;;10.02;4.43;;;;;;;;;;5072564;28;20465;-47
2022/03/23 07:21:31;;;;;;;5.38;3.35;;;;;;;;;;5074281;28;20107;-45
2022/03/23 07:23:58;;;;;;;9.05;4.43;;;;;;;;;;5081425;28;20061;-54
2022/03/23 07:26:24;;;;;;;7.35;3.47;;;;;;;;;;5080921;28;20028;-49
2022/03/23 07:28:50;;;;;;;8.85;5.00;;;;;;;;;;5086229;28;20484;-45
2022/03/23 07:31:16;;;;;;;8.63;4.68;;;;;;;;;;5066072;28;20370;-47
2022/03/23 07:33:42;;;;;;;6.63;4.25;;;;;;;;;;5079020;28;20067;-44
2022/03/23 07:36:08;;;;;;;7.65;4.22;;;;;;;;;;5083542;28;20032;-47
2022/03/23 07:38:34;;;;;;;9.30;5.05;;;;;;;;;;5081840;28;20032;-46
2022/03/23 07:41:00;;;;;;;8.00;4.20;;;;;;;;;;5071319;28;20016;-54
2022/03/23 07:43:26;;;;;;;7.50;4.38;;;;;;;;;;5081924;28;20545;-46
2022/03/23 07:45:52;;;;;;;8.68;4.50;;;;;;;;;;5074027;28;20108;-46
2022/03/23 07:48:20;;;;;;;7.68;4.78;;;;;;;;;;5085744;28;20104;-45
2022/03/23 07:50:46;;;;;;;7.97;4.18;;;;;;;;;;5090118;28;20314;-48
2022/03/23 07:53:12;;;;;;;7.72;4.63;;;;;;;;;;5084531;28;20059;-45
2022/03/23 07:55:38;;;;;;;11.38;4.45;;;;;;;;;;5090260;28;20032;-45
2022/03/23 07:58:05;;;;;;;7.07;4.90;;;;;;;;;;5081585;28;20444;-48
2022/03/23 08:00:31;;;;;;;7.97;4.45;;;;;;;;;;5080424;28;20465;-47
2022/03/23 08:02:57;;;;;;;9.50;4.45;;;;;;;;;;5075669;28;20521;-46
2022/03/23 08:05:25;;;;;;;8.27;4.32;;;;;;;;;;5081111;28;20107;-44
2022/03/23 08:07:51;;;;;;;20.48;4.28;;;;;;;;;;5069617;28;20362;-45
2022/03/23 08:10:17;;;;;;;8.18;4.93;;;;;;;;;;5077373;28;20492;-44
2022/03/23 08:12:43;;;;;;;7.57;4.00;;;;;;;;;;5079805;28;20107;-46
2022/03/23 08:15:09;;;;;;;9.07;5.13;;;;;;;;;;5055651;28;20141;-46
2022/03/23 08:17:38;;;;;;;9.18;4.50;;;;;;;;;;5082596;28;20048;-46
2022/03/23 08:22:51;;;;;;;9.55;4.50;;;;;;;;;;5088846;28;20482;-44
2022/03/23 08:25:17;;;;;;;8.52;3.80;;;;;;;;;;5081471;28;20108;-44
2022/03/23 08:27:43;;;;;;;5.78;4.13;;;;;;;;;;5085449;28;20062;-47
2022/03/23 08:30:09;;;;;;;20.30;5.43;;;;;;;;;;5077978;28;20150;-50
2022/03/23 08:32:35;;;;;;;6.88;4.03;;;;;;;;;;5072955;28;20103;-45
2022/03/23 08:35:01;;;;;;;6.88;4.18;;;;;;;;;;5079897;28;20107;-55
2022/03/23 08:37:28;;;;;;;9.43;5.53;;;;;;;;;;5072864;28;20060;-48
2022/03/23 08:39:54;;;;;;;6.90;4.57;;;;;;;;;;5088753;28;20032;-44
2022/03/23 08:42:20;;;;;;;8.43;4.97;;;;;;;;;;5087963;28;20040;-50
2022/03/23 08:44:46;;;;;;;6.18;4.22;;;;;;;;;;5087121;28;20534;-47
2022/03/23 08:47:12;;;;;;;7.28;4.80;;;;;;;;;;5071842;28;20032;-44
2022/03/23 08:49:38;;;;;;;6.15;4.30;;;;;;;;;;5070454;28;20024;-44
2022/03/23 08:52:05;;;;;;;9.25;4.50;;;;;;;;;;5087422;28;20068;-45
2022/03/23 08:54:31;;;;;;;7.60;4.68;;;;;;;;;;5084913;28;20483;-48
2022/03/23 08:56:57;;;;;;;10.75;4.78;;;;;;;;;;5084341;28;20043;-44
2022/03/23 08:59:23;;;;;;;7.93;4.32;;;;;;;;;;5090302;28;20032;-45
2022/03/23 09:01:50;;;;;;;8.57;4.72;;;;;;;;;;5087949;28;20040;-46
2022/03/23 09:04:16;;;;;;;9.48;4.60;;;;;;;;;;5081109;28;20032;-45
2022/03/23 09:06:42;;;;;;;7.88;5.00;;;;;;;;;;5081764;28;20032;-50
2022/03/23 09:09:08;;;;;;;8.40;4.68;;;;;;;;;;5091816;28;20023;-47
2022/03/23 09:11:34;;;;;;;8.10;5.25;;;;;;;;;;5088871;28;20546;-45
2022/03/23 09:14:00;;;;;;;7.75;4.40;;;;;;;;;;5091391;28;20028;-56
2022/03/23 09:16:27;;;;;;;9.00;5.38;;;;;;;;;;5086641;28;20048;-45
2022/03/23 09:18:53;;;;;;;8.80;5.25;;;;;;;;;;5089209;28;20054;-44
2022/03/23 09:21:20;;;;;;;6.93;5.18;;;;;;;;;;5083934;28;20094;-44
2022/03/23 09:23:46;;;;;;;6.45;4.53;;;;;;;;;;5079767;28;20056;-44
2022/03/23 09:26:12;;;;;;;7.88;4.95;;;;;;;;;;5078927;28;20032;-44
2022/03/23 09:28:39;;;;;;;6.53;4.47;;;;;;;;;;5080584;28;20028;-44
2022/03/23 09:31:06;;;;;;;8.98;5.03;;;;;;;;;;5082610;28;20043;-45
2022/03/23 09:33:32;;;;;;;8.65;5.00;;;;;;;;;;5073553;28;20082;-45
2022/03/23 09:35:58;;;;;;;11.25;5.85;;;;;;;;;;5072608;28;20896;-53
2022/03/23 09:38:26;;;;;;;8.77;4.28;;;;;;;;;;5086210;28;20512;-49
2022/03/23 09:40:52;;;;;;;7.70;5.25;;;;;;;;;;5092856;28;20016;-46
2022/03/23 09:43:22;;;;;;;10.00;5.13;;;;;;;;;;5086616;28;20401;-45
2022/03/23 09:45:49;;;;;;;9.27;4.85;;;;;;;;;;5087164;28;20071;-44
2022/03/23 09:48:16;;;;;;;8.70;4.95;;;;;;;;;;5085474;28;20044;-50
2022/03/23 09:50:47;;;;;;;10.65;5.40;;;;;;;;;;5091497;28;20024;-44
2022/03/23 09:53:13;;;;;;;9.13;5.18;;;;;;;;;;5082432;28;20497;-45
2022/03/23 09:55:41;;;;;;;6.07;4.18;;;;;;;;;;5080365;28;20416;-44
2022/03/23 09:58:08;;;;;;;7.40;5.13;;;;;;;;;;5084396;28;20016;-44
2022/03/23 10:00:34;;;;;;;7.50;4.75;;;;;;;;;;5075164;28;20129;-44
2022/03/23 10:03:09;;;;;;;7.03;4.05;;;;;;;;;;5082560;28;20035;-54
2022/03/23 10:05:38;;;;;;;7.90;5.22;;;;;;;;;;5082488;28;20530;-44
2022/03/23 10:08:23;;;;;;;8.63;4.88;;;;;;;;;;5090758;28;20034;-45
2022/03/23 10:11:08;;;;;;;7.78;4.57;;;;;;;;;;5090790;28;20393;-44
2022/03/23 10:13:54;;;;;;;9.07;5.53;;;;;;;;;;5084290;28;20062;-44
2022/03/23 10:16:39;;;;;;;9.80;5.50;;;;;;;;;;5093376;28;20040;-45
2022/03/23 10:19:05;;;;;;;9.35;5.05;;;;;;;;;;5084683;28;20067;-44
2022/03/23 10:21:37;;;;;;;10.45;4.65;;;;;;;;;;5074648;28;20032;-46
2022/03/23 10:24:03;;;;;;;12.07;5.43;;;;;;;;;;5072030;28;20039;-54
2022/03/23 10:50:23;;;;;;;7.65;4.40;;;;;;;;;;5116747;22;20421;-55
2022/03/23 10:52:55;;;;;;;8.65;4.65;;;;;;;;;;5074307;28;20052;-45
2022/03/23 10:55:22;;;;;;;8.05;4.35;;;;;;;;;;5073461;28;20025;-47
2022/03/23 10:58:04;;;;;;;7.53;4.20;;;;;;;;;;5072891;28;20028;-48
2022/03/23 11:00:30;;;;;;;7.82;3.85;;;;;;;;;;5072183;28;20378;-44
2022/03/23 11:02:57;;;;;;;7.45;4.20;;;;;;;;;;5072792;28;20484;-47
2022/03/23 11:05:33;;;;;;;6.43;4.45;;;;;;;;;;5072735;28;20029;-47
2022/03/23 11:08:07;;;;;;;6.07;4.13;;;;;;;;;;5073155;28;20107;-44
2022/03/23 11:16:36;;;;;;;7.68;4.30;;;;;;;;;;5059869;28;20108;-49
2022/03/23 11:19:11;;;;;;;6.00;4.13;;;;;;;;;;5073179;28;20025;-45
2022/03/23 11:21:57;;;;;;;6.55;4.05;;;;;;;;;;5072240;28;20389;-46
2022/03/23 11:24:23;;;;;;;8.00;4.50;;;;;;;;;;5072153;28;20040;-46
2022/03/23 11:26:50;;;;;;;6.22;4.22;;;;;;;;;;5072702;28;20535;-49
2022/03/23 11:29:17;;;;;;;9.63;4.88;;;;;;;;;;5072211;28;20029;-46
2022/03/23 11:31:45;;;;;;;4.72;3.80;;;;;;;;;;5072757;28;20052;-49
2022/03/23 11:34:13;;;;;;;5.25;3.67;;;;;;;;;;5072557;28;20020;-54
2022/03/23 11:36:39;;;;;;;9.45;4.50;;;;;;;;;;5072151;28;20025;-45
2022/03/23 11:39:05;;;;;;;4.82;3.50;;;;;;;;;;5070682;28;20516;-44
2022/03/23 11:41:33;;;;;;;7.45;3.47;;;;;;;;;;5072385;28;20950;-44
2022/03/23 11:43:59;;;;;;;7.40;4.78;;;;;;;;;;5068501;28;20032;-45
2022/03/23 11:46:26;;;;;;;4.97;2.78;;;;;;;;;;5051235;28;20096;-44
2022/03/23 11:49:00;;;;;;;7.00;3.95;;;;;;;;;;5051786;28;20045;-45
2022/03/23 11:51:32;;;;;;;7.35;3.90;;;;;;;;;;5051641;28;20386;-45
2022/03/23 11:54:11;;;;;;;4.32;3.05;;;;;;;;;;5052115;28;20025;-46
2022/03/23 11:56:43;;;;;;;5.40;3.78;;;;;;;;;;5051476;28;20078;-44
2022/03/23 11:59:21;;;;;;;4.78;3.83;;;;;;;;;;5066636;28;20082;-46
2022/03/23 12:01:48;;;;;;;5.97;3.80;;;;;;;;;;5053513;28;20044;-46
2022/03/23 12:04:17;;;;;;;4.57;3.55;;;;;;;;;;5070597;28;20098;-56
2022/03/23 12:06:44;;;;;;;5.47;3.65;;;;;;;;;;5071086;28;20055;-44
2022/03/23 12:09:29;;;;;;;4.25;3.13;;;;;;;;;;5070919;28;20082;-45
2022/03/23 12:11:55;;;;;;;5.18;3.20;;;;;;;;;;5070895;28;20039;-45
2022/03/23 12:14:23;;;;;;;5.93;3.53;;;;;;;;;;5070114;28;20024;-47
2022/03/23 12:16:52;;;;;;;4.22;3.33;;;;;;;;;;5071067;28;20032;-44
2022/03/23 12:19:28;;;;;;;5.32;3.05;;;;;;;;;;5069786;28;20028;-44
2022/03/23 12:21:59;;;;;;;6.07;3.20;;;;;;;;;;5070986;28;20386;-44
2022/03/23 12:24:34;;;;;;;4.72;2.97;;;;;;;;;;5052148;28;20028;-44
2022/03/23 12:27:03;;;;;;;5.25;3.15;;;;;;;;;;5070804;28;20025;-45
2022/03/23 12:29:35;;;;;;;3.80;2.70;;;;;;;;;;5069852;28;20100;-47
2022/03/23 12:32:06;;;;;;;5.35;3.17;;;;;;;;;;5070736;28;20054;-46
2022/03/23 12:34:33;;;;;;;4.45;3.20;;;;;;;;;;5069987;28;20040;-45
2022/03/23 12:37:09;;;;;;;4.72;3.00;;;;;;;;;;5071227;28;20108;-46
2022/03/23 12:39:36;;;;;;;7.03;3.63;;;;;;;;;;5069896;28;20029;-48
2022/03/23 12:42:11;;;;;;;4.60;2.80;;;;;;;;;;5070655;28;20028;-45
2022/03/23 12:44:38;;;;;;;5.88;2.75;;;;;;;;;;5069609;28;20056;-44
2022/03/23 12:47:05;;;;;;;4.50;2.78;;;;;;;;;;5070603;28;20078;-47
2022/03/23 12:58:13;;;;;;;6.05;3.20;;;;;;;;;;5057369;28;20082;-54
2022/03/23 13:00:40;;;;;;;3.95;2.63;;;;;;;;;;5071293;28;20028;-45
2022/03/23 13:03:06;;;;;;;3.13;2.42;;;;;;;;;;5064013;28;20025;-55
2022/03/23 13:05:33;;;;;;;3.75;2.42;;;;;;;;;;5070400;28;20366;-45
2022/03/23 13:07:59;;;;;;;4.45;2.67;;;;;;;;;;5071198;28;20024;-45
2022/03/23 13:10:25;;;;;;;3.15;2.78;;;;;;;;;;5069814;28;20078;-46
2022/03/23 13:12:51;;;;;;;3.60;2.60;;;;;;;;;;5070363;28;20439;-46
2022/03/23 13:15:18;;;;;;;4.68;2.90;;;;;;;;;;5069564;28;20078;-46
2022/03/23 13:17:48;;;;;;;6.65;2.72;;;;;;;;;;5070847;28;20029;-45
2022/03/23 13:20:15;;;;;;;3.35;2.50;;;;;;;;;;5069995;28;20036;-53
2022/03/23 13:22:41;;;;;;;3.85;2.38;;;;;;;;;;5070450;28;20033;-46
2022/03/23 13:25:08;;;;;;;6.90;3.55;;;;;;;;;;5070155;28;20052;-45
2022/03/23 13:27:38;;;;;;;3.58;2.83;;;;;;;;;;5069133;28;20658;-44
2022/03/23 13:30:05;;;;;;;3.45;2.60;;;;;;;;;;5070252;28;20032;-45
2022/03/23 13:32:36;;;;;;;3.20;2.85;;;;;;;;;;5069520;28;20040;-44
2022/03/23 13:35:03;;;;;;;3.35;2.33;;;;;;;;;;5069974;28;20066;-45
2022/03/23 13:37:31;;;;;;;3.45;2.55;;;;;;;;;;5069174;28;20021;-44
2022/03/23 13:39:57;;;;;;;3.70;2.80;;;;;;;;;;5069933;28;20074;-47
2022/03/23 13:45:09;;;;;;;3.53;2.80;;;;;;;;;;5071579;28;20066;-48
2022/03/23 13:47:41;;;;;;;4.03;2.90;;;;;;;;;;5072975;28;20016;-45
2022/03/23 13:50:09;;;;;;;3.38;2.60;;;;;;;;;;5073416;28;20072;-47
2022/03/23 13:52:36;;;;;;;3.47;2.17;;;;;;;;;;5054927;28;20063;-45
2022/03/23 13:55:03;;;;;;;4.13;2.38;;;;;;;;;;5073396;28;20026;-44
2022/03/23 13:57:30;;;;;;;3.35;2.35;;;;;;;;;;5072147;28;20504;-46
2022/03/23 13:59:56;;;;;;;5.00;2.90;;;;;;;;;;5055359;28;20012;-44
2022/03/23 14:02:25;;;;;;;3.10;2.40;;;;;;;;;;5072593;28;20054;-46
2022/03/23 14:04:51;;;;;;;4.60;2.67;;;;;;;;;;5073201;28;20078;-46
2022/03/23 14:07:18;;;;;;;4.07;2.38;;;;;;;;;;5072241;28;20016;-44
2022/03/23 14:09:44;;;;;;;5.60;3.22;;;;;;;;;;5072926;28;20481;-45
2022/03/23 14:12:10;;;;;;;3.08;2.38;;;;;;;;;;5073202;28;20037;-49
2022/03/23 14:14:37;;;;;;;3.08;2.35;;;;;;;;;;5072137;28;20032;-45
2022/03/23 14:17:23;;;;;;;4.53;2.47;;;;;;;;;;5073054;28;20027;-47
2022/03/23 14:19:51;;;;;;;4.30;3.13;;;;;;;;;;5073105;28;20764;-45
2022/03/23 14:22:22;;;;;;;3.65;2.30;;;;;;;;;;5072090;28;20137;-53
2022/03/23 14:24:49;;;;;;;3.47;2.38;;;;;;;;;;5073011;28;20032;-44
2022/03/23 14:27:16;;;;;;;4.47;2.55;;;;;;;;;;5053478;28;20958;-54
2022/03/23 14:29:43;;;;;;;4.68;2.42;;;;;;;;;;5072275;28;20566;-48
2022/03/23 14:32:13;;;;;;;3.92;2.88;;;;;;;;;;5072932;28;20377;-44
2022/03/23 14:34:46;;;;;;;3.50;2.30;;;;;;;;;;5072647;28;20024;-47
2022/03/23 14:37:13;;;;;;;5.95;3.40;;;;;;;;;;5072725;28;20024;-48
2022/03/23 14:39:43;;;;;;;4.05;2.60;;;;;;;;;;5072278;28;20025;-46
2022/03/23 14:42:11;;;;;;;4.60;2.58;;;;;;;;;;5072483;28;20024;-44
2022/03/23 14:44:38;;;;;;;4.68;3.13;;;;;;;;;;5071698;28;20784;-47
2022/03/23 14:47:09;;;;;;;5.72;2.85;;;;;;;;;;5066205;28;20986;-54
2022/03/23 14:49:42;;;;;;;4.68;3.05;;;;;;;;;;5070737;28;20122;-45
2022/03/23 14:52:09;;;;;;;4.65;3.08;;;;;;;;;;5073890;28;20036;-45
2022/03/23 14:54:41;;;;;;;4.75;3.13;;;;;;;;;;5071638;28;20029;-45
2022/03/23 14:57:08;;;;;;;3.83;3.00;;;;;;;;;;5071073;28;20028;-47
2022/03/23 14:59:42;;;;;;;7.35;3.03;;;;;;;;;;5071038;28;20164;-49
2022/03/23 15:02:08;;;;;;;6.35;3.10;;;;;;;;;;5072381;28;20385;-47
2022/03/23 15:04:34;;;;;;;5.45;2.72;;;;;;;;;;5071506;28;20112;-46
2022/03/23 15:15:14;;;;;;;5.93;3.15;;;;;;;;;;5071277;28;20031;-54
2022/03/23 15:17:40;;;;;;;7.53;4.05;;;;;;;;;;5069987;28;20474;-46
2022/03/23 15:20:06;;;;;;;2.38;1.95;;;;;;;;;;5071552;28;20046;-47
2022/03/23 15:22:33;;;;;;;3.67;2.92;;;;;;;;;;5071076;28;20029;-47
2022/03/23 15:24:59;;;;;;;6.63;3.20;;;;;;;;;;5071709;28;20033;-46
2022/03/23 15:27:25;;;;;;;5.57;2.90;;;;;;;;;;5070872;28;20035;-52
2022/03/23 15:29:51;;;;;;;3.95;2.95;;;;;;;;;;5071334;28;20025;-46
2022/03/23 15:32:17;;;;;;;3.63;2.55;;;;;;;;;;5070724;28;20086;-53
2022/03/23 15:34:43;;;;;;;4.65;2.70;;;;;;;;;;5071672;28;20358;-48
2022/03/23 15:37:10;;;;;;;4.80;2.78;;;;;;;;;;5071157;28;20074;-45
2022/03/23 15:39:36;;;;;;;3.97;2.10;;;;;;;;;;5070734;28;20073;-48
2022/03/23 15:42:02;;;;;;;5.78;2.33;;;;;;;;;;5071444;28;20066;-47
2022/03/23 15:44:28;;;;;;;4.53;2.53;;;;;;;;;;5070359;28;20033;-46
2022/03/23 15:46:54;;;;;;;4.43;2.40;;;;;;;;;;5071269;28;20051;-47
2022/03/23 15:49:20;;;;;;;5.07;2.78;;;;;;;;;;5070541;28;20062;-45
2022/03/23 15:51:46;;;;;;;6.25;3.10;;;;;;;;;;5071116;28;20489;-47